Time;durP1;ratioP1;P1;durP2;ratioP2;P2;SDS_P1;SDS_P2;PMS_P1;PMS_P2;Temp;Humidity;BMP_temperature;BMP_pressure;BME280_temperature;BME280_humidity;BME280_pressure;Samples;Min_cycle;Max_cycle;Signal;HPM_P1;HPM_P2
2022/05/10 00:02:14;;;;;;;2.10;1.60;;;;;;;;;;20881919;28;20221;-67
2022/05/10 00:12:16;;;;;;;2.07;1.80;;;;;;;;;;20864663;28;20773;-67
2022/05/10 00:22:18;;;;;;;2.97;1.93;;;;;;;;;;20879894;28;20297;-67
2022/05/10 00:32:21;;;;;;;2.30;1.93;;;20.00;99.90;;;;;;20861844;28;20574;-68
2022/05/10 00:42:39;;;;;;;2.40;2.00;;;19.90;99.90;;;;;;20846755;28;20209;-67
2022/05/10 00:52:45;;;;;;;2.37;2.07;;;;;;;;;;20891846;23;20240;-67
2022/05/10 01:02:47;;;;;;;3.17;1.90;;;;;;;;;;20860664;28;20209;-65
2022/05/10 01:12:57;;;;;;;3.00;2.03;;;19.70;99.90;;;;;;20859611;28;20228;-65
2022/05/10 01:23:26;;;;;;;2.50;2.20;;;;;;;;;;20859094;28;20213;-64
2022/05/10 01:33:36;;;;;;;2.57;2.00;;;19.40;99.90;;;;;;20855618;28;20303;-65
2022/05/10 01:44:09;;;;;;;2.67;2.20;;;19.20;99.90;;;;;;20874077;28;20243;-65
2022/05/10 01:54:34;;;;;;;3.80;2.57;;;;;;;;;;20848430;28;20704;-65
2022/05/10 02:04:39;;;;;;;3.40;2.23;;;;;;;;;;20828921;28;20233;-65
2022/05/10 02:14:54;;;;;;;2.50;1.93;;;19.00;99.90;;;;;;20839109;28;20597;-65
2022/05/10 02:24:58;;;;;;;2.30;2.07;;;;;;;;;;20871107;28;20278;-65
2022/05/10 02:35:02;;;;;;;5.53;2.47;;;;;;;;;;20870906;28;20287;-65
2022/05/10 02:45:05;;;;;;;2.67;2.20;;;18.60;99.90;;;;;;20837809;28;20246;-65
2022/05/10 02:55:38;;;;;;;3.03;2.53;;;18.40;99.90;;;;;;20864719;28;20222;-65
2022/05/10 03:05:40;;;;;;;3.07;2.17;;;;;;;;;;20938105;28;20740;-66
2022/05/10 03:15:42;;;;;;;2.87;2.27;;;;;;;;;;20951260;28;20273;-64
2022/05/10 03:25:44;;;;;;;2.93;2.37;;;;;;;;;;20950626;28;20268;-64
2022/05/10 03:35:46;;;;;;;3.30;2.43;;;;;;;;;;20878010;28;20292;-64
2022/05/10 03:45:48;;;;;;;2.80;2.30;;;;;;;;;;20877060;28;20286;-64
2022/05/10 03:55:49;;;;;;;3.07;2.50;;;;;;;;;;20868722;28;20278;-63
2022/05/10 04:05:51;;;;;;;3.50;2.47;;;;;;;;;;20881070;28;20204;-63
2022/05/10 04:15:53;;;;;;;3.60;2.40;;;;;;;;;;20863212;28;20211;-63
2022/05/10 04:25:55;;;;;;;4.13;2.50;;;;;;;;;;20879586;28;20223;-65
2022/05/10 04:35:57;;;;;;;4.97;2.43;;;17.80;99.90;;;;;;20863098;28;20218;-64
2022/05/10 04:45:59;;;;;;;2.90;2.07;;;;;;;;;;20861901;28;20206;-64
2022/05/10 04:56:03;;;;;;;2.60;2.03;;;;;;;;;;20860744;28;20222;-64
2022/05/10 05:06:05;;;;;;;3.20;2.33;;;;;;;;;;20857569;28;20634;-64
2022/05/10 05:16:07;;;;;;;3.77;2.40;;;;;;;;;;20859916;28;20584;-64
2022/05/10 05:26:10;;;;;;;5.67;3.27;;;;;;;;;;20875139;28;20202;-64
2022/05/10 05:36:12;;;;;;;12.30;7.43;;;;;;;;;;20877249;28;20222;-64
2022/05/10 05:46:15;;;;;;;3.47;2.60;;;;;;;;;;20873532;28;20763;-64
2022/05/10 05:56:17;;;;;;;4.00;2.10;;;;;;;;;;20873029;28;20280;-64
2022/05/10 06:06:19;;;;;;;3.03;2.03;;;;;;;;;;20856046;28;20628;-64
2022/05/10 06:16:21;;;;;;;7.30;2.10;;;;;;;;;;20855373;28;20222;-64
2022/05/10 06:26:23;;;;;;;3.43;2.07;;;;;;;;;;20855077;28;20264;-64
2022/05/10 06:36:24;;;;;;;2.57;1.87;;;;;;;;;;20860105;28;20279;-64
2022/05/10 06:46:27;;;;;;;2.73;1.70;;;;;;;;;;20888101;28;20261;-64
2022/05/10 06:56:29;;;;;;;1.93;1.50;;;;;;;;;;20915935;22;20235;-68
2022/05/10 07:06:31;;;;;;;2.67;1.73;;;;;;;;;;20885867;28;20218;-68
2022/05/10 07:16:33;;;;;;;3.33;2.20;;;;;;;;;;20870204;28;20273;-68
2022/05/10 07:26:35;;;;;;;2.47;1.90;;;;;;;;;;20868343;28;20613;-68
2022/05/10 07:36:38;;;;;;;3.73;1.97;;;;;;;;;;20867745;28;20249;-68
2022/05/10 07:46:40;;;;;;;5.27;2.13;;;;;;;;;;20866690;28;20208;-68
2022/05/10 07:56:42;;;;;;;3.70;2.10;;;;;;;;;;20866082;28;20623;-68
2022/05/10 08:06:46;;;;;;;2.60;1.90;;;;;;;;;;20865281;28;20243;-68
2022/05/10 08:16:48;;;;;;;3.17;1.93;;;;;;;;;;20864387;28;20202;-68
2022/05/10 08:26:50;;;;;;;3.77;2.27;;;;;;;;;;20879318;28;20582;-69
2022/05/10 08:36:52;;;;;;;3.10;2.40;;;;;;;;;;20862710;28;20213;-69
2022/05/10 08:46:58;;;;;;;4.50;2.57;;;22.40;99.90;;;;;;20862260;28;20289;-69
2022/05/10 08:57:03;;;;;;;2.70;2.00;;;;;;;;;;20877648;28;20215;-69
2022/05/10 09:07:53;;;;;;;2.70;1.92;;;22.90;99.90;;;;;;20860439;28;20552;-68
2022/05/10 09:17:56;;;;;;;2.13;1.80;;;;;;;;;;20853300;28;20275;-69
2022/05/10 09:27:59;;;;;;;7.15;2.00;;;;;;;;;;20858812;28;20283;-69
2022/05/10 09:38:06;;;;;;;2.10;1.90;;;;;;;;;;20858199;28;20214;-69
2022/05/10 09:48:08;;;;;;;2.88;2.00;;;;;;;;;;20857580;28;20218;-69
2022/05/10 09:58:20;;;;;;;3.35;1.60;;;24.00;99.90;;;;;;20889277;28;20253;-69
2022/05/10 10:09:00;;;;;;;2.95;1.90;;;24.20;99.90;;;;;;20855661;28;20713;-69
2022/05/10 10:19:02;;;;;;;2.15;1.80;;;;;;;;;;20652757;28;20215;-69
2022/05/10 10:29:10;;;;;;;1.65;1.27;;;24.80;99.90;;;;;;20871032;28;20233;-69
2022/05/10 10:39:17;;;;;;;4.97;1.50;;;;;;;;;;20855411;28;20695;-69
2022/05/10 10:49:23;;;;;;;1.95;1.60;;;;;;;;;;20854777;28;20273;-69
2022/05/10 10:59:48;;;;;;;2.85;1.40;;;25.00;97.90;;;;;;20854245;28;20595;-69
2022/05/10 11:09:50;;;;;;;1.90;1.38;;;;;;;;;;20853559;28;20302;-69
2022/05/10 11:20:13;;;;;;;1.88;1.25;;;25.30;97.60;;;;;;20854347;28;20213;-69
2022/05/10 11:30:20;;;;;;;1.42;1.08;;;;;;;;;;20868424;28;20276;-69
2022/05/10 11:40:33;;;;;;;2.00;1.30;;;25.00;97.60;;;;;;20867648;28;20265;-69
2022/05/10 12:01:41;;;;;;;1.58;1.00;;;;;;;;;;20881923;28;20222;-69
2022/05/10 12:11:44;;;;;;;1.98;1.23;;;;;;;;;;20865019;28;20282;-69
2022/05/10 12:21:54;;;;;;;1.17;0.90;;;25.40;99.90;;;;;;20864459;28;20532;-68
2022/05/10 12:31:58;;;;;;;1.63;1.20;;;;;;;;;;20847039;28;20222;-68
2022/05/10 12:42:00;;;;;;;3.00;1.02;;;;;;;;;;20878896;28;20277;-68
2022/05/10 12:52:20;;;;;;;1.50;1.15;;;;;;;;;;20872454;23;20227;31
2022/05/10 13:02:22;;;;;;;1.25;0.88;;;;;;;;;;20622938;28;20370;-70
2022/05/10 13:12:25;;;;;;;1.30;1.00;;;;;;;;;;20666732;28;20636;-69
2022/05/10 13:22:27;;;;;;;1.13;0.82;;;26.30;94.20;;;;;;20696193;28;20219;-70
2022/05/10 13:32:42;;;;;;;2.35;0.80;;;;;;;;;;20711531;28;20710;-69
2022/05/10 13:42:46;;;;;;;1.30;0.70;;;;;;;;;;20694747;28;20598;-69
2022/05/10 13:52:50;;;;;;;1.60;0.90;;;;;;;;;;20709364;28;20234;-70
2022/05/10 14:02:57;;;;;;;0.70;0.57;;;;;;;;;;20724914;28;20230;-69
2022/05/10 14:13:04;;;;;;;1.13;0.80;;;;;;;;;;20708415;28;20237;-70
2022/05/10 14:23:14;;;;;;;0.85;0.80;;;27.10;92.10;;;;;;20692653;28;20629;-69
2022/05/10 14:33:20;;;;;;;1.42;0.80;;;;;;;;;;20691706;28;20291;-69
2022/05/10 14:43:27;;;;;;;0.70;0.60;;;26.40;92.20;;;;;;20707305;28;20606;-70
2022/05/10 14:53:35;;;;;;;0.75;0.60;;;;;;;;;;20723007;28;20292;-69
2022/05/10 15:03:38;;;;;;;1.52;0.90;;;;;;;;;;20721167;28;20256;-70
2022/05/10 15:13:40;;;;;;;2.08;0.70;;;;;;;;;;20705774;28;20278;-70
2022/05/10 15:23:42;;;;;;;7.32;1.48;;;;;;;;;;20705418;28;20623;-70
2022/05/10 15:33:44;;;;;;;0.80;0.60;;;;;;;;;;20704246;28;20300;-70
2022/05/10 15:43:46;;;;;;;3.97;1.10;;;;;;;;;;20704161;28;20211;-70
2022/05/10 15:53:48;;;;;;;1.00;0.70;;;;;;;;;;20703488;28;20277;-70
2022/05/10 16:03:50;;;;;;;0.88;0.68;;;;;;;;;;20703618;28;20272;-70
2022/05/10 16:13:51;;;;;;;4.55;0.80;;;;;;;;;;20700652;28;20226;-69
2022/05/10 16:23:53;;;;;;;1.98;1.00;;;;;;;;;;20701636;28;20229;-69
2022/05/10 16:33:55;;;;;;;1.02;0.70;;;;;;;;;;20700116;28;20751;-70
2022/05/10 16:43:57;;;;;;;0.75;0.60;;;;;;;;;;20720161;28;20268;-69
2022/05/10 16:54:11;;;;;;;1.88;0.82;;;;;;;;;;20699757;28;20634;-69
2022/05/10 17:04:13;;;;;;;0.73;0.52;;;;;;;;;;20683740;28;20264;-68
2022/05/10 17:14:16;;;;;;;1.00;0.70;;;;;;;;;;20713247;28;20279;-70
2022/05/10 17:24:18;;;;;;;0.95;0.57;;;;;;;;;;20692064;28;20266;-70
2022/05/10 17:34:20;;;;;;;1.23;1.00;;;;;;;;;;20671054;28;20859;-70
2022/05/10 17:44:22;;;;;;;1.83;0.90;;;;;;;;;;20734283;28;20269;-70
2022/05/10 17:54:24;;;;;;;1.60;0.90;;;24.80;94.30;;;;;;20674649;28;20299;-69
2022/05/10 18:04:27;;;;;;;2.47;0.82;;;;;;;;;;20742997;28;20209;-69
2022/05/10 18:14:32;;;;;;;0.85;0.70;;;;;;;;;;20757581;28;20233;-69
2022/05/10 18:24:34;;;;;;;1.52;1.00;;;;;;;;;;20756601;28;20278;-69
2022/05/10 18:34:37;;;;;;;3.35;1.10;;;;;;;;;;20751910;28;20286;-69
2022/05/10 18:44:39;;;;;;;2.88;1.17;;;;;;;;;;20740229;28;20266;-69
2022/05/10 18:54:42;;;;;;;2.03;1.20;;;;;;;;;;20734640;23;20822;-68
2022/05/10 19:04:44;;;;;;;1.58;1.10;;;;;;;;;;20827411;28;20225;-68
2022/05/10 19:14:45;;;;;;;2.90;1.10;;;;;;;;;;20859480;28;20216;-68
2022/05/10 19:24:48;;;;;;;1.67;1.10;;;;;;;;;;20844436;28;20204;-68
2022/05/10 19:34:50;;;;;;;2.03;1.30;;;;;;;;;;20843989;28;20281;-68
2022/05/10 19:44:52;;;;;;;1.70;1.23;;;;;;;;;;20834797;28;20213;-68
2022/05/10 19:54:55;;;;;;;1.88;1.35;;;;;;;;;;20875680;28;20236;-68
2022/05/10 20:15:23;;;;;;;4.53;1.55;;;;;;;;;;20874572;28;20288;-68
2022/05/10 20:25:28;;;;;;;2.47;1.20;;;23.40;99.90;;;;;;20874757;28;20255;-68
2022/05/10 20:35:46;;;;;;;1.92;1.38;;;;;;;;;;20876137;28;20639;-68
2022/05/10 20:45:48;;;;;;;1.90;1.20;;;;;;;;;;20862208;28;20212;-68
2022/05/10 20:55:50;;;;;;;2.20;1.33;;;;;;;;;;20861154;28;20292;-68
2022/05/10 21:05:52;;;;;;;2.45;1.63;;;;;;;;;;20861112;28;20557;-68
2022/05/10 21:15:58;;;;;;;2.10;1.30;;;;;;;;;;20871224;28;20718;-68
2022/05/10 21:26:18;;;;;;;1.98;1.30;;;;;;;;;;20947242;28;20266;-68
2022/05/10 21:36:22;;;;;;;1.50;1.20;;;;;;;;;;20940621;28;20760;-68
2022/05/10 21:46:24;;;;;;;1.75;1.30;;;;;;;;;;20940123;28;20212;-68
2022/05/10 21:56:27;;;;;;;3.33;1.40;;;;;;;;;;20955963;28;20233;-68
2022/05/10 22:06:28;;;;;;;2.10;1.48;;;;;;;;;;20938657;28;20257;-68
2022/05/10 22:16:34;;;;;;;1.85;1.20;;;;;;;;;;20938355;28;20223;-68
2022/05/10 22:26:36;;;;;;;1.90;1.23;;;;;;;;;;20970495;28;20216;-68
2022/05/10 22:36:38;;;;;;;1.70;1.23;;;;;;;;;;20937377;28;20688;-68
2022/05/10 22:46:40;;;;;;;1.65;1.20;;;;;;;;;;20937076;28;20256;-68
2022/05/10 22:56:42;;;;;;;2.22;1.55;;;;;;;;;;20936603;28;20727;-68
2022/05/10 23:06:44;;;;;;;2.17;1.73;;;;;;;;;;20936208;28;20209;-68
2022/05/10 23:16:46;;;;;;;2.88;1.70;;;;;;;;;;20937855;28;20223;-68
2022/05/10 23:26:48;;;;;;;1.83;1.20;;;;;;;;;;20950919;28;20205;-68
2022/05/10 23:36:51;;;;;;;2.25;1.60;;;;;;;;;;20966604;28;20230;-68
2022/05/10 23:46:53;;;;;;;2.25;1.35;;;;;;;;;;20936724;28;20285;-68
2022/05/10 23:56:57;;;;;;;1.58;1.25;;;21.50;99.90;;;;;;20875158;28;20276;-68
